sensor_id;sensor_type;location;lat;lon;timestamp;temperature;humidity
53410;DHT22;66590;50.734;4.246;2023-08-20T00:01:56;20.90;99.90
53410;DHT22;66590;50.734;4.246;2023-08-20T00:04:25;20.80;99.90
53410;DHT22;66590;50.734;4.246;2023-08-20T00:06:53;20.70;99.90
53410;DHT22;66590;50.734;4.246;2023-08-20T00:09:20;20.60;99.90
53410;DHT22;66590;50.734;4.246;2023-08-20T00:11:48;20.60;99.90
53410;DHT22;66590;50.734;4.246;2023-08-20T00:14:16;20.60;99.90
53410;DHT22;66590;50.734;4.246;2023-08-20T00:16:44;20.50;99.90
53410;DHT22;66590;50.734;4.246;2023-08-20T00:19:12;20.50;99.90
53410;DHT22;66590;50.734;4.246;2023-08-20T00:21:42;20.50;99.90
53410;DHT22;66590;50.734;4.246;2023-08-20T00:24:10;20.50;99.90
53410;DHT22;66590;50.734;4.246;2023-08-20T00:26:38;20.40;99.90
53410;DHT22;66590;50.734;4.246;2023-08-20T00:29:06;20.30;99.90
53410;DHT22;66590;50.734;4.246;2023-08-20T00:31:33;20.40;99.90
53410;DHT22;66590;50.734;4.246;2023-08-20T00:34:00;20.40;99.90
53410;DHT22;66590;50.734;4.246;2023-08-20T00:36:33;20.40;99.90
53410;DHT22;66590;50.734;4.246;2023-08-20T00:39:00;20.50;99.90
53410;DHT22;66590;50.734;4.246;2023-08-20T00:41:27;20.60;99.90
53410;DHT22;66590;50.734;4.246;2023-08-20T00:43:54;20.70;99.90
53410;DHT22;66590;50.734;4.246;2023-08-20T00:46:22;20.70;99.90
53410;DHT22;66590;50.734;4.246;2023-08-20T00:48:49;20.70;99.90
53410;DHT22;66590;50.734;4.246;2023-08-20T00:51:17;20.70;99.90
53410;DHT22;66590;50.734;4.246;2023-08-20T00:53:44;20.80;99.90
53410;DHT22;66590;50.734;4.246;2023-08-20T00:56:11;20.90;99.90
53410;DHT22;66590;50.734;4.246;2023-08-20T00:58:38;20.90;99.90
53410;DHT22;66590;50.734;4.246;2023-08-20T01:01:05;20.90;99.90
53410;DHT22;66590;50.734;4.246;2023-08-20T01:03:33;20.90;99.90
53410;DHT22;66590;50.734;4.246;2023-08-20T01:06:08;20.90;99.90
53410;DHT22;66590;50.734;4.246;2023-08-20T01:08:40;20.80;99.90
53410;DHT22;66590;50.734;4.246;2023-08-20T01:11:12;20.80;99.90
53410;DHT22;66590;50.734;4.246;2023-08-20T01:13:43;20.90;99.90
53410;DHT22;66590;50.734;4.246;2023-08-20T01:16:09;20.90;99.90
53410;DHT22;66590;50.734;4.246;2023-08-20T01:18:38;20.90;99.90
53410;DHT22;66590;50.734;4.246;2023-08-20T01:21:13;20.90;99.90
53410;DHT22;66590;50.734;4.246;2023-08-20T01:24:05;20.90;99.90
53410;DHT22;66590;50.734;4.246;2023-08-20T01:27:00;20.90;99.90
53410;DHT22;66590;50.734;4.246;2023-08-20T01:29:32;20.80;99.90
53410;DHT22;66590;50.734;4.246;2023-08-20T01:32:00;20.70;99.90
53410;DHT22;66590;50.734;4.246;2023-08-20T01:34:27;20.50;99.90
53410;DHT22;66590;50.734;4.246;2023-08-20T01:36:54;20.30;99.90
53410;DHT22;66590;50.734;4.246;2023-08-20T01:39:21;20.30;99.90
53410;DHT22;66590;50.734;4.246;2023-08-20T01:41:48;20.30;99.90
53410;DHT22;66590;50.734;4.246;2023-08-20T01:44:15;20.20;99.90
53410;DHT22;66590;50.734;4.246;2023-08-20T01:46:43;20.30;99.90
53410;DHT22;66590;50.734;4.246;2023-08-20T01:49:10;20.30;99.90
53410;DHT22;66590;50.734;4.246;2023-08-20T01:51:37;20.40;99.90
53410;DHT22;66590;50.734;4.246;2023-08-20T01:54:04;20.50;99.90
53410;DHT22;66590;50.734;4.246;2023-08-20T01:56:31;20.50;99.90
53410;DHT22;66590;50.734;4.246;2023-08-20T01:58:58;20.40;99.90
53410;DHT22;66590;50.734;4.246;2023-08-20T02:01:32;20.60;99.90
53410;DHT22;66590;50.734;4.246;2023-08-20T02:04:07;20.60;99.90
53410;DHT22;66590;50.734;4.246;2023-08-20T02:06:40;20.60;99.90
53410;DHT22;66590;50.734;4.246;2023-08-20T02:09:07;20.50;99.90
53410;DHT22;66590;50.734;4.246;2023-08-20T02:11:34;20.40;99.90
53410;DHT22;66590;50.734;4.246;2023-08-20T02:14:07;20.30;99.90
53410;DHT22;66590;50.734;4.246;2023-08-20T02:16:41;20.30;99.90
53410;DHT22;66590;50.734;4.246;2023-08-20T02:19:16;20.20;99.90
53410;DHT22;66590;50.734;4.246;2023-08-20T02:21:43;20.10;99.90
53410;DHT22;66590;50.734;4.246;2023-08-20T02:24:16;20.10;99.90
53410;DHT22;66590;50.734;4.246;2023-08-20T02:26:43;20.00;99.90
53410;DHT22;66590;50.734;4.246;2023-08-20T02:29:16;19.90;99.90
53410;DHT22;66590;50.734;4.246;2023-08-20T02:31:43;19.80;99.90
53410;DHT22;66590;50.734;4.246;2023-08-20T02:34:10;19.80;99.90
53410;DHT22;66590;50.734;4.246;2023-08-20T02:36:45;19.70;99.90
53410;DHT22;66590;50.734;4.246;2023-08-20T02:39:13;19.70;99.90
53410;DHT22;66590;50.734;4.246;2023-08-20T02:41:46;19.50;99.90
53410;DHT22;66590;50.734;4.246;2023-08-20T02:44:13;19.60;99.90
53410;DHT22;66590;50.734;4.246;2023-08-20T02:46:40;19.70;99.90
53410;DHT22;66590;50.734;4.246;2023-08-20T02:49:13;19.90;99.90
53410;DHT22;66590;50.734;4.246;2023-08-20T02:51:44;19.80;99.90
53410;DHT22;66590;50.734;4.246;2023-08-20T02:54:17;19.70;99.90
53410;DHT22;66590;50.734;4.246;2023-08-20T02:56:44;19.60;99.90
53410;DHT22;66590;50.734;4.246;2023-08-20T02:59:11;19.50;99.90
53410;DHT22;66590;50.734;4.246;2023-08-20T03:01:44;19.50;99.90
53410;DHT22;66590;50.734;4.246;2023-08-20T03:04:11;19.50;99.90
53410;DHT22;66590;50.734;4.246;2023-08-20T03:06:46;19.50;99.90
53410;DHT22;66590;50.734;4.246;2023-08-20T03:09:13;19.50;99.90
53410;DHT22;66590;50.734;4.246;2023-08-20T03:11:46;19.40;99.90
53410;DHT22;66590;50.734;4.246;2023-08-20T03:14:19;19.30;99.90
53410;DHT22;66590;50.734;4.246;2023-08-20T03:16:54;19.30;99.90
53410;DHT22;66590;50.734;4.246;2023-08-20T03:19:21;19.20;99.90
53410;DHT22;66590;50.734;4.246;2023-08-20T03:21:50;19.20;99.90
53410;DHT22;66590;50.734;4.246;2023-08-20T03:24:23;19.30;99.90
53410;DHT22;66590;50.734;4.246;2023-08-20T03:26:56;19.30;99.90
53410;DHT22;66590;50.734;4.246;2023-08-20T03:29:23;19.30;99.90
53410;DHT22;66590;50.734;4.246;2023-08-20T03:31:56;19.20;99.90
53410;DHT22;66590;50.734;4.246;2023-08-20T03:34:29;19.20;99.90
53410;DHT22;66590;50.734;4.246;2023-08-20T03:37:05;19.20;99.90
53410;DHT22;66590;50.734;4.246;2023-08-20T03:39:32;19.10;99.90
53410;DHT22;66590;50.734;4.246;2023-08-20T03:42:05;19.20;99.90
53410;DHT22;66590;50.734;4.246;2023-08-20T03:44:32;19.10;99.90
53410;DHT22;66590;50.734;4.246;2023-08-20T03:47:06;19.10;99.90
53410;DHT22;66590;50.734;4.246;2023-08-20T03:49:39;19.10;99.90
53410;DHT22;66590;50.734;4.246;2023-08-20T03:52:08;19.20;99.90
53410;DHT22;66590;50.734;4.246;2023-08-20T03:54:41;19.20;99.90
53410;DHT22;66590;50.734;4.246;2023-08-20T03:57:08;19.10;99.90
53410;DHT22;66590;50.734;4.246;2023-08-20T03:59:35;19.00;99.90
53410;DHT22;66590;50.734;4.246;2023-08-20T04:02:08;18.90;99.90
53410;DHT22;66590;50.734;4.246;2023-08-20T04:04:35;18.70;99.90
53410;DHT22;66590;50.734;4.246;2023-08-20T04:07:10;18.50;99.90
53410;DHT22;66590;50.734;4.246;2023-08-20T04:09:36;18.50;99.90
53410;DHT22;66590;50.734;4.246;2023-08-20T04:12:10;18.40;99.90
53410;DHT22;66590;50.734;4.246;2023-08-20T04:14:37;18.50;99.90
53410;DHT22;66590;50.734;4.246;2023-08-20T04:17:04;18.50;99.90
53410;DHT22;66590;50.734;4.246;2023-08-20T04:19:37;18.50;99.90
53410;DHT22;66590;50.734;4.246;2023-08-20T04:22:12;18.40;99.90
53410;DHT22;66590;50.734;4.246;2023-08-20T04:24:45;18.60;99.90
53410;DHT22;66590;50.734;4.246;2023-08-20T04:27:12;18.50;99.90
53410;DHT22;66590;50.734;4.246;2023-08-20T04:29:39;18.50;99.90
53410;DHT22;66590;50.734;4.246;2023-08-20T04:32:12;18.50;99.90
53410;DHT22;66590;50.734;4.246;2023-08-20T04:34:39;18.40;99.90
53410;DHT22;66590;50.734;4.246;2023-08-20T04:37:14;18.40;99.90
53410;DHT22;66590;50.734;4.246;2023-08-20T04:39:41;18.30;99.90
53410;DHT22;66590;50.734;4.246;2023-08-20T04:42:08;18.40;99.90
53410;DHT22;66590;50.734;4.246;2023-08-20T04:44:41;18.40;99.90
53410;DHT22;66590;50.734;4.246;2023-08-20T04:47:15;18.50;99.90
53410;DHT22;66590;50.734;4.246;2023-08-20T04:49:48;18.50;99.90
53410;DHT22;66590;50.734;4.246;2023-08-20T04:52:24;18.50;99.90
53410;DHT22;66590;50.734;4.246;2023-08-20T04:54:58;18.40;99.90
53410;DHT22;66590;50.734;4.246;2023-08-20T04:57:31;18.40;99.90
53410;DHT22;66590;50.734;4.246;2023-08-20T05:00:06;18.40;99.90
53410;DHT22;66590;50.734;4.246;2023-08-20T05:02:33;18.40;99.90
53410;DHT22;66590;50.734;4.246;2023-08-20T05:05:07;18.30;99.90
53410;DHT22;66590;50.734;4.246;2023-08-20T05:07:35;18.40;99.90
53410;DHT22;66590;50.734;4.246;2023-08-20T05:10:08;18.50;99.90
53410;DHT22;66590;50.734;4.246;2023-08-20T05:12:35;18.50;99.90
53410;DHT22;66590;50.734;4.246;2023-08-20T05:15:10;18.60;99.90
53410;DHT22;66590;50.734;4.246;2023-08-20T05:17:43;18.60;99.90
53410;DHT22;66590;50.734;4.246;2023-08-20T05:20:16;18.70;99.90
53410;DHT22;66590;50.734;4.246;2023-08-20T05:22:45;18.90;99.90
53410;DHT22;66590;50.734;4.246;2023-08-20T05:25:12;19.00;99.90
53410;DHT22;66590;50.734;4.246;2023-08-20T05:27:45;18.90;99.90
53410;DHT22;66590;50.734;4.246;2023-08-20T05:30:12;18.90;99.90
53410;DHT22;66590;50.734;4.246;2023-08-20T05:32:46;18.70;99.90
53410;DHT22;66590;50.734;4.246;2023-08-20T05:35:13;18.70;99.90
53410;DHT22;66590;50.734;4.246;2023-08-20T05:37:40;18.70;99.90
53410;DHT22;66590;50.734;4.246;2023-08-20T05:40:15;18.90;99.90
53410;DHT22;66590;50.734;4.246;2023-08-20T05:42:42;19.10;99.90
53410;DHT22;66590;50.734;4.246;2023-08-20T05:45:18;19.00;99.90
53410;DHT22;66590;50.734;4.246;2023-08-20T05:47:51;18.90;99.90
53410;DHT22;66590;50.734;4.246;2023-08-20T05:50:24;18.90;99.90
53410;DHT22;66590;50.734;4.246;2023-08-20T05:52:52;18.90;99.90
53410;DHT22;66590;50.734;4.246;2023-08-20T05:55:20;19.00;99.90
53410;DHT22;66590;50.734;4.246;2023-08-20T05:57:54;19.00;99.90
53410;DHT22;66590;50.734;4.246;2023-08-20T06:00:28;19.00;99.90
53410;DHT22;66590;50.734;4.246;2023-08-20T06:03:01;18.90;99.90
53410;DHT22;66590;50.734;4.246;2023-08-20T06:05:36;19.10;99.90
53410;DHT22;66590;50.734;4.246;2023-08-20T06:08:09;19.20;99.90
53410;DHT22;66590;50.734;4.246;2023-08-20T06:10:38;19.30;99.90
53410;DHT22;66590;50.734;4.246;2023-08-20T06:13:11;19.50;99.90
53410;DHT22;66590;50.734;4.246;2023-08-20T06:15:39;19.70;99.90
53410;DHT22;66590;50.734;4.246;2023-08-20T06:18:12;20.10;99.90
53410;DHT22;66590;50.734;4.246;2023-08-20T06:20:39;20.40;99.90
53410;DHT22;66590;50.734;4.246;2023-08-20T06:23:07;20.70;99.90
53410;DHT22;66590;50.734;4.246;2023-08-20T06:26:02;21.20;99.90
53410;DHT22;66590;50.734;4.246;2023-08-20T06:28:29;21.80;99.90
53410;DHT22;66590;50.734;4.246;2023-08-20T06:31:02;22.80;99.90
53410;DHT22;66590;50.734;4.246;2023-08-20T06:33:29;24.10;99.90
53410;DHT22;66590;50.734;4.246;2023-08-20T06:36:04;25.00;99.90
53410;DHT22;66590;50.734;4.246;2023-08-20T06:38:31;25.00;99.90
53410;DHT22;66590;50.734;4.246;2023-08-20T06:41:06;24.60;99.90
53410;DHT22;66590;50.734;4.246;2023-08-20T06:43:33;24.20;99.90
53410;DHT22;66590;50.734;4.246;2023-08-20T06:45:59;23.60;99.90
53410;DHT22;66590;50.734;4.246;2023-08-20T06:48:33;23.30;99.90
53410;DHT22;66590;50.734;4.246;2023-08-20T06:51:08;22.90;99.90
53410;DHT22;66590;50.734;4.246;2023-08-20T06:53:41;23.90;99.90
53410;DHT22;66590;50.734;4.246;2023-08-20T06:56:16;25.30;99.90
53410;DHT22;66590;50.734;4.246;2023-08-20T06:58:50;26.60;99.90
53410;DHT22;66590;50.734;4.246;2023-08-20T07:01:17;27.70;99.90
53410;DHT22;66590;50.734;4.246;2023-08-20T07:03:44;28.40;99.90
53410;DHT22;66590;50.734;4.246;2023-08-20T07:06:17;28.90;99.90
53410;DHT22;66590;50.734;4.246;2023-08-20T07:08:45;29.40;99.90
53410;DHT22;66590;50.734;4.246;2023-08-20T07:11:20;29.70;99.90
53410;DHT22;66590;50.734;4.246;2023-08-20T07:13:47;30.10;99.90
53410;DHT22;66590;50.734;4.246;2023-08-20T07:16:21;30.50;99.90
53410;DHT22;66590;50.734;4.246;2023-08-20T07:18:49;30.40;99.90
53410;DHT22;66590;50.734;4.246;2023-08-20T07:21:22;30.60;99.00
53410;DHT22;66590;50.734;4.246;2023-08-20T07:23:49;30.60;98.10
53410;DHT22;66590;50.734;4.246;2023-08-20T07:26:16;30.70;97.90
53410;DHT22;66590;50.734;4.246;2023-08-20T07:28:51;30.80;98.20
53410;DHT22;66590;50.734;4.246;2023-08-20T07:31:18;31.00;97.70
53410;DHT22;66590;50.734;4.246;2023-08-20T07:33:52;31.00;97.30
53410;DHT22;66590;50.734;4.246;2023-08-20T07:36:20;30.60;97.00
53410;DHT22;66590;50.734;4.246;2023-08-20T07:38:54;30.90;97.00
53410;DHT22;66590;50.734;4.246;2023-08-20T07:41:27;30.80;96.70
53410;DHT22;66590;50.734;4.246;2023-08-20T07:44:02;31.00;97.00
53410;DHT22;66590;50.734;4.246;2023-08-20T07:46:29;30.90;95.50
53410;DHT22;66590;50.734;4.246;2023-08-20T07:49:03;30.50;96.20
53410;DHT22;66590;50.734;4.246;2023-08-20T07:51:36;30.10;96.50
53410;DHT22;66590;50.734;4.246;2023-08-20T07:54:09;30.20;96.00
53410;DHT22;66590;50.734;4.246;2023-08-20T07:56:36;30.20;96.20
53410;DHT22;66590;50.734;4.246;2023-08-20T07:59:05;30.60;96.00
53410;DHT22;66590;50.734;4.246;2023-08-20T08:01:38;30.90;95.40
53410;DHT22;66590;50.734;4.246;2023-08-20T08:04:05;31.30;95.00
53410;DHT22;66590;50.734;4.246;2023-08-20T08:06:38;31.20;95.00
53410;DHT22;66590;50.734;4.246;2023-08-20T08:09:18;30.90;94.30
53410;DHT22;66590;50.734;4.246;2023-08-20T08:11:52;31.00;94.10
53410;DHT22;66590;50.734;4.246;2023-08-20T08:14:27;30.70;94.30
53410;DHT22;66590;50.734;4.246;2023-08-20T08:17:00;30.40;94.40
53410;DHT22;66590;50.734;4.246;2023-08-20T08:19:27;30.60;95.10
53410;DHT22;66590;50.734;4.246;2023-08-20T08:22:01;30.50;94.30
53410;DHT22;66590;50.734;4.246;2023-08-20T08:24:28;30.50;94.40
53410;DHT22;66590;50.734;4.246;2023-08-20T08:26:55;30.00;94.10
53410;DHT22;66590;50.734;4.246;2023-08-20T08:29:23;29.90;93.60
53410;DHT22;66590;50.734;4.246;2023-08-20T08:31:52;30.30;94.60
53410;DHT22;66590;50.734;4.246;2023-08-20T08:34:19;30.10;94.40
53410;DHT22;66590;50.734;4.246;2023-08-20T08:36:46;29.90;94.30
53410;DHT22;66590;50.734;4.246;2023-08-20T08:39:13;30.00;94.20
53410;DHT22;66590;50.734;4.246;2023-08-20T08:41:42;29.80;93.00
53410;DHT22;66590;50.734;4.246;2023-08-20T08:44:10;30.00;93.40
53410;DHT22;66590;50.734;4.246;2023-08-20T08:46:38;30.40;93.50
53410;DHT22;66590;50.734;4.246;2023-08-20T08:49:08;30.70;93.50
53410;DHT22;66590;50.734;4.246;2023-08-20T08:51:36;30.90;92.60
53410;DHT22;66590;50.734;4.246;2023-08-20T08:54:03;31.30;93.40
53410;DHT22;66590;50.734;4.246;2023-08-20T08:56:31;31.30;92.80
53410;DHT22;66590;50.734;4.246;2023-08-20T08:58:58;31.30;92.20
53410;DHT22;66590;50.734;4.246;2023-08-20T09:01:26;31.40;92.30
53410;DHT22;66590;50.734;4.246;2023-08-20T09:03:53;31.70;91.70
53410;DHT22;66590;50.734;4.246;2023-08-20T09:06:21;31.60;90.80
53410;DHT22;66590;50.734;4.246;2023-08-20T09:08:48;31.50;91.50
53410;DHT22;66590;50.734;4.246;2023-08-20T09:11:15;31.60;91.70
53410;DHT22;66590;50.734;4.246;2023-08-20T09:13:43;31.80;91.70
53410;DHT22;66590;50.734;4.246;2023-08-20T09:16:11;31.90;91.00
53410;DHT22;66590;50.734;4.246;2023-08-20T09:18:39;31.90;91.00
53410;DHT22;66590;50.734;4.246;2023-08-20T09:21:07;31.80;90.80
53410;DHT22;66590;50.734;4.246;2023-08-20T09:23:36;31.40;87.20
53410;DHT22;66590;50.734;4.246;2023-08-20T09:26:04;31.60;90.00
53410;DHT22;66590;50.734;4.246;2023-08-20T09:28:40;30.60;90.70
53410;DHT22;66590;50.734;4.246;2023-08-20T09:31:09;30.30;91.50
53410;DHT22;66590;50.734;4.246;2023-08-20T09:33:49;30.50;92.70
53410;DHT22;66590;50.734;4.246;2023-08-20T09:36:16;30.70;94.20
53410;DHT22;66590;50.734;4.246;2023-08-20T09:38:44;30.80;92.90
53410;DHT22;66590;50.734;4.246;2023-08-20T09:41:13;30.60;92.60
53410;DHT22;66590;50.734;4.246;2023-08-20T09:43:41;30.70;92.50
53410;DHT22;66590;50.734;4.246;2023-08-20T09:46:10;30.80;92.80
53410;DHT22;66590;50.734;4.246;2023-08-20T09:48:38;30.90;92.00
53410;DHT22;66590;50.734;4.246;2023-08-20T09:51:11;30.80;91.00
53410;DHT22;66590;50.734;4.246;2023-08-20T09:53:49;30.60;91.40
53410;DHT22;66590;50.734;4.246;2023-08-20T09:56:23;30.70;93.00
53410;DHT22;66590;50.734;4.246;2023-08-20T09:58:51;30.70;92.00
53410;DHT22;66590;50.734;4.246;2023-08-20T10:01:18;30.70;92.20
53410;DHT22;66590;50.734;4.246;2023-08-20T10:03:46;30.60;93.00
53410;DHT22;66590;50.734;4.246;2023-08-20T10:06:13;30.90;91.80
53410;DHT22;66590;50.734;4.246;2023-08-20T10:08:40;30.70;92.30
53410;DHT22;66590;50.734;4.246;2023-08-20T10:11:09;31.00;92.40
53410;DHT22;66590;50.734;4.246;2023-08-20T10:13:37;31.10;91.50
53410;DHT22;66590;50.734;4.246;2023-08-20T10:16:04;31.10;91.30
53410;DHT22;66590;50.734;4.246;2023-08-20T10:18:34;31.20;91.40
53410;DHT22;66590;50.734;4.246;2023-08-20T10:21:01;31.00;92.00
53410;DHT22;66590;50.734;4.246;2023-08-20T10:23:30;31.30;91.90
53410;DHT22;66590;50.734;4.246;2023-08-20T10:26:08;31.60;91.90
53410;DHT22;66590;50.734;4.246;2023-08-20T10:28:36;31.60;92.20
53410;DHT22;66590;50.734;4.246;2023-08-20T10:31:04;31.60;91.80
53410;DHT22;66590;50.734;4.246;2023-08-20T10:33:33;31.60;92.10
53410;DHT22;66590;50.734;4.246;2023-08-20T10:36:07;31.80;91.20
53410;DHT22;66590;50.734;4.246;2023-08-20T10:38:36;31.90;90.90
53410;DHT22;66590;50.734;4.246;2023-08-20T10:41:06;32.00;90.70
53410;DHT22;66590;50.734;4.246;2023-08-20T10:43:35;32.00;91.50
53410;DHT22;66590;50.734;4.246;2023-08-20T10:46:08;32.20;90.80
53410;DHT22;66590;50.734;4.246;2023-08-20T10:48:38;32.00;90.20
53410;DHT22;66590;50.734;4.246;2023-08-20T10:51:07;32.10;91.00
53410;DHT22;66590;50.734;4.246;2023-08-20T10:53:34;32.40;90.70
53410;DHT22;66590;50.734;4.246;2023-08-20T10:56:09;32.20;91.10
53410;DHT22;66590;50.734;4.246;2023-08-20T10:58:38;32.30;90.50
53410;DHT22;66590;50.734;4.246;2023-08-20T11:01:19;32.10;91.10
53410;DHT22;66590;50.734;4.246;2023-08-20T11:03:48;32.10;90.60
53410;DHT22;66590;50.734;4.246;2023-08-20T11:06:15;32.10;90.30
53410;DHT22;66590;50.734;4.246;2023-08-20T11:08:43;31.90;90.90
53410;DHT22;66590;50.734;4.246;2023-08-20T11:11:11;31.60;90.40
53410;DHT22;66590;50.734;4.246;2023-08-20T11:13:40;31.30;92.80
53410;DHT22;66590;50.734;4.246;2023-08-20T11:16:07;31.60;91.60
53410;DHT22;66590;50.734;4.246;2023-08-20T11:18:34;31.80;90.60
53410;DHT22;66590;50.734;4.246;2023-08-20T11:21:01;32.10;90.70
53410;DHT22;66590;50.734;4.246;2023-08-20T11:23:28;32.30;91.30
53410;DHT22;66590;50.734;4.246;2023-08-20T11:25:56;32.10;90.40
53410;DHT22;66590;50.734;4.246;2023-08-20T11:28:25;32.30;90.20
53410;DHT22;66590;50.734;4.246;2023-08-20T11:30:54;32.40;90.90
53410;DHT22;66590;50.734;4.246;2023-08-20T11:33:22;32.60;90.50
53410;DHT22;66590;50.734;4.246;2023-08-20T11:35:49;32.80;90.90
53410;DHT22;66590;50.734;4.246;2023-08-20T11:38:16;32.70;90.50
53410;DHT22;66590;50.734;4.246;2023-08-20T11:40:43;32.60;90.40
53410;DHT22;66590;50.734;4.246;2023-08-20T11:43:10;32.50;89.00
53410;DHT22;66590;50.734;4.246;2023-08-20T11:45:44;32.40;89.70
53410;DHT22;66590;50.734;4.246;2023-08-20T11:48:13;31.70;90.40
53410;DHT22;66590;50.734;4.246;2023-08-20T11:50:40;31.90;91.40
53410;DHT22;66590;50.734;4.246;2023-08-20T11:53:08;32.10;91.00
53410;DHT22;66590;50.734;4.246;2023-08-20T11:55:35;32.30;90.80
53410;DHT22;66590;50.734;4.246;2023-08-20T11:58:02;32.40;90.70
53410;DHT22;66590;50.734;4.246;2023-08-20T12:00:30;32.40;91.70
53410;DHT22;66590;50.734;4.246;2023-08-20T12:02:58;32.20;90.30
53410;DHT22;66590;50.734;4.246;2023-08-20T12:05:28;32.30;90.90
53410;DHT22;66590;50.734;4.246;2023-08-20T12:07:55;32.10;90.80
53410;DHT22;66590;50.734;4.246;2023-08-20T12:10:23;31.60;91.40
53410;DHT22;66590;50.734;4.246;2023-08-20T12:12:50;32.00;90.90
53410;DHT22;66590;50.734;4.246;2023-08-20T12:15:18;32.30;90.80
53410;DHT22;66590;50.734;4.246;2023-08-20T12:17:58;32.60;90.40
53410;DHT22;66590;50.734;4.246;2023-08-20T12:20:32;33.10;89.70
53410;DHT22;66590;50.734;4.246;2023-08-20T12:23:00;33.20;88.10
53410;DHT22;66590;50.734;4.246;2023-08-20T12:25:29;33.50;90.20
53410;DHT22;66590;50.734;4.246;2023-08-20T12:27:56;33.60;89.30
53410;DHT22;66590;50.734;4.246;2023-08-20T12:30:23;33.80;90.00
53410;DHT22;66590;50.734;4.246;2023-08-20T12:32:50;34.00;90.00
53410;DHT22;66590;50.734;4.246;2023-08-20T12:35:18;33.80;89.50
53410;DHT22;66590;50.734;4.246;2023-08-20T12:37:47;33.90;87.00
53410;DHT22;66590;50.734;4.246;2023-08-20T12:40:15;33.80;87.00
53410;DHT22;66590;50.734;4.246;2023-08-20T12:42:45;33.60;88.20
53410;DHT22;66590;50.734;4.246;2023-08-20T12:45:14;32.60;90.10
53410;DHT22;66590;50.734;4.246;2023-08-20T12:47:46;32.30;91.00
53410;DHT22;66590;50.734;4.246;2023-08-20T12:50:20;32.30;90.50
53410;DHT22;66590;50.734;4.246;2023-08-20T12:52:50;32.40;90.60
53410;DHT22;66590;50.734;4.246;2023-08-20T12:55:22;32.60;91.00
53410;DHT22;66590;50.734;4.246;2023-08-20T12:57:58;32.80;89.60
53410;DHT22;66590;50.734;4.246;2023-08-20T13:00:29;33.10;89.00
53410;DHT22;66590;50.734;4.246;2023-08-20T13:03:08;33.20;89.10
53410;DHT22;66590;50.734;4.246;2023-08-20T13:05:45;33.30;89.10
53410;DHT22;66590;50.734;4.246;2023-08-20T13:08:19;33.40;88.70
53410;DHT22;66590;50.734;4.246;2023-08-20T13:10:52;33.30;88.50
53410;DHT22;66590;50.734;4.246;2023-08-20T13:13:23;32.50;90.00
53410;DHT22;66590;50.734;4.246;2023-08-20T13:15:55;32.70;89.00
53410;DHT22;66590;50.734;4.246;2023-08-20T13:18:23;32.00;90.20
53410;DHT22;66590;50.734;4.246;2023-08-20T13:20:52;31.80;90.40
53410;DHT22;66590;50.734;4.246;2023-08-20T13:23:21;30.90;90.90
53410;DHT22;66590;50.734;4.246;2023-08-20T13:25:51;30.90;91.60
53410;DHT22;66590;50.734;4.246;2023-08-20T13:28:18;31.40;90.90
53410;DHT22;66590;50.734;4.246;2023-08-20T13:30:46;31.60;90.60
53410;DHT22;66590;50.734;4.246;2023-08-20T13:36:00;32.00;90.80
53410;DHT22;66590;50.734;4.246;2023-08-20T13:38:29;32.30;90.80
53410;DHT22;66590;50.734;4.246;2023-08-20T13:41:22;32.70;90.90
53410;DHT22;66590;50.734;4.246;2023-08-20T13:43:53;32.50;90.20
53410;DHT22;66590;50.734;4.246;2023-08-20T13:46:43;32.70;89.80
53410;DHT22;66590;50.734;4.246;2023-08-20T13:49:26;33.00;91.00
53410;DHT22;66590;50.734;4.246;2023-08-20T13:51:59;33.20;89.50
53410;DHT22;66590;50.734;4.246;2023-08-20T13:54:37;32.90;89.30
53410;DHT22;66590;50.734;4.246;2023-08-20T13:57:07;32.90;90.00
53410;DHT22;66590;50.734;4.246;2023-08-20T13:59:44;32.80;90.80
53410;DHT22;66590;50.734;4.246;2023-08-20T14:02:20;32.70;90.10
53410;DHT22;66590;50.734;4.246;2023-08-20T14:04:58;32.40;90.90
53410;DHT22;66590;50.734;4.246;2023-08-20T14:07:47;32.20;90.10
53410;DHT22;66590;50.734;4.246;2023-08-20T14:10:26;31.80;90.90
53410;DHT22;66590;50.734;4.246;2023-08-20T14:13:15;31.10;91.60
53410;DHT22;66590;50.734;4.246;2023-08-20T14:16:16;31.00;91.80
53410;DHT22;66590;50.734;4.246;2023-08-20T14:19:02;31.10;91.30
53410;DHT22;66590;50.734;4.246;2023-08-20T14:21:32;31.50;91.30
53410;DHT22;66590;50.734;4.246;2023-08-20T14:23:59;31.90;90.60
53410;DHT22;66590;50.734;4.246;2023-08-20T14:26:30;32.30;90.70
53410;DHT22;66590;50.734;4.246;2023-08-20T14:29:24;32.50;91.20
53410;DHT22;66590;50.734;4.246;2023-08-20T14:31:51;32.70;90.70
53410;DHT22;66590;50.734;4.246;2023-08-20T14:34:18;32.70;90.40
53410;DHT22;66590;50.734;4.246;2023-08-20T14:36:45;32.60;89.80
53410;DHT22;66590;50.734;4.246;2023-08-20T14:39:12;32.70;89.60
53410;DHT22;66590;50.734;4.246;2023-08-20T14:41:50;32.60;89.50
53410;DHT22;66590;50.734;4.246;2023-08-20T14:44:32;32.50;90.40
53410;DHT22;66590;50.734;4.246;2023-08-20T14:47:24;31.80;91.00
53410;DHT22;66590;50.734;4.246;2023-08-20T14:50:07;31.20;91.90
53410;DHT22;66590;50.734;4.246;2023-08-20T14:52:40;31.40;91.50
53410;DHT22;66590;50.734;4.246;2023-08-20T14:55:09;32.00;90.40
53410;DHT22;66590;50.734;4.246;2023-08-20T14:57:41;32.20;90.50
53410;DHT22;66590;50.734;4.246;2023-08-20T15:00:21;32.40;90.10
53410;DHT22;66590;50.734;4.246;2023-08-20T15:03:05;32.60;90.50
53410;DHT22;66590;50.734;4.246;2023-08-20T15:05:45;32.60;90.30
53410;DHT22;66590;50.734;4.246;2023-08-20T15:08:30;32.60;90.70
53410;DHT22;66590;50.734;4.246;2023-08-20T15:11:09;32.20;90.50
53410;DHT22;66590;50.734;4.246;2023-08-20T15:13:46;31.90;90.90
53410;DHT22;66590;50.734;4.246;2023-08-20T15:16:16;31.80;91.00
53410;DHT22;66590;50.734;4.246;2023-08-20T15:18:54;31.80;91.30
53410;DHT22;66590;50.734;4.246;2023-08-20T15:21:32;31.50;91.70
53410;DHT22;66590;50.734;4.246;2023-08-20T15:24:15;31.70;91.30
53410;DHT22;66590;50.734;4.246;2023-08-20T15:26:53;31.90;91.40
53410;DHT22;66590;50.734;4.246;2023-08-20T15:29:25;31.70;91.50
53410;DHT22;66590;50.734;4.246;2023-08-20T15:31:56;31.80;90.90
53410;DHT22;66590;50.734;4.246;2023-08-20T15:34:29;31.70;91.30
53410;DHT22;66590;50.734;4.246;2023-08-20T15:37:06;31.60;91.20
53410;DHT22;66590;50.734;4.246;2023-08-20T15:39:42;31.20;91.90
53410;DHT22;66590;50.734;4.246;2023-08-20T15:42:19;31.20;92.00
53410;DHT22;66590;50.734;4.246;2023-08-20T15:44:58;31.20;92.10
53410;DHT22;66590;50.734;4.246;2023-08-20T15:47:30;31.40;91.90
53410;DHT22;66590;50.734;4.246;2023-08-20T15:50:02;31.40;91.50
53410;DHT22;66590;50.734;4.246;2023-08-20T15:52:33;31.40;92.40
53410;DHT22;66590;50.734;4.246;2023-08-20T15:55:03;30.70;91.70
53410;DHT22;66590;50.734;4.246;2023-08-20T15:57:35;30.30;92.30